createdAt,value
2017-09-13T00:02:05.069Z,10.80
2017-09-13T00:04:33.144Z,10.80
2017-09-13T00:07:01.215Z,10.90
2017-09-13T00:09:29.304Z,10.90
2017-09-13T00:11:57.383Z,10.90
2017-09-13T00:14:25.464Z,10.80
2017-09-13T00:16:54.307Z,10.80
2017-09-13T00:19:22.382Z,10.80
2017-09-13T00:21:50.468Z,10.80
2017-09-13T00:24:18.559Z,10.90
2017-09-13T00:26:46.640Z,10.90
2017-09-13T00:29:15.499Z,10.90
2017-09-13T00:31:43.587Z,10.80
2017-09-13T00:34:12.437Z,10.90
2017-09-13T00:36:40.507Z,10.90
2017-09-13T00:39:08.602Z,10.90
2017-09-13T00:41:36.687Z,10.90
2017-09-13T00:44:05.543Z,10.90
2017-09-13T00:46:33.646Z,10.90
2017-09-13T00:49:01.738Z,11.00
2017-09-13T00:51:30.172Z,10.90
2017-09-13T00:53:58.264Z,11.00
2017-09-13T00:56:27.110Z,10.90
2017-09-13T00:58:55.200Z,10.90
2017-09-13T01:01:23.278Z,10.90
2017-09-13T01:03:51.373Z,10.80
2017-09-13T01:06:20.215Z,10.80
2017-09-13T01:08:48.294Z,10.80
2017-09-13T01:11:16.396Z,10.80
2017-09-13T01:13:45.238Z,10.70
2017-09-13T01:16:13.324Z,10.70
2017-09-13T01:18:41.416Z,10.70
2017-09-13T01:21:21.160Z,10.60
2017-09-13T01:23:49.256Z,10.60
2017-09-13T01:26:18.099Z,10.50
2017-09-13T01:28:46.184Z,10.40
2017-09-13T01:31:15.897Z,10.40
2017-09-13T01:33:43.980Z,10.40
2017-09-13T01:36:12.070Z,10.40
2017-09-13T01:38:40.151Z,10.40
2017-09-13T01:41:08.248Z,10.30
2017-09-13T01:43:36.445Z,10.40
2017-09-13T01:46:04.541Z,10.30
2017-09-13T01:48:33.387Z,10.20
2017-09-13T01:51:01.484Z,10.20
2017-09-13T01:53:29.568Z,10.30
2017-09-13T01:55:58.427Z,10.20
2017-09-13T01:58:26.513Z,10.20
2017-09-13T02:00:54.604Z,10.20
2017-09-13T02:03:23.463Z,10.30
2017-09-13T02:05:51.564Z,10.20
2017-09-13T02:08:20.426Z,10.20
2017-09-13T02:10:48.519Z,10.20
2017-09-13T02:13:17.395Z,10.20
2017-09-13T02:15:46.246Z,10.30
2017-09-13T02:18:14.322Z,10.20
2017-09-13T02:20:42.417Z,10.20
2017-09-13T02:23:10.499Z,10.20
2017-09-13T02:25:39.350Z,10.30
2017-09-13T02:28:07.439Z,10.30
2017-09-13T02:30:35.519Z,10.20
2017-09-13T02:33:04.367Z,10.20
2017-09-13T02:35:32.450Z,10.10
2017-09-13T02:38:00.532Z,10.10
2017-09-13T02:40:28.617Z,10.10
2017-09-13T02:42:56.706Z,10.10
2017-09-13T02:45:25.549Z,10.10
2017-09-13T02:47:53.834Z,10.10
2017-09-13T02:50:21.923Z,10.00
2017-09-13T02:52:50.776Z,10.00
2017-09-13T02:55:18.875Z,10.00
2017-09-13T02:57:46.947Z,9.90
2017-09-13T03:00:15.024Z,9.90
2017-09-13T03:02:43.097Z,10.00
2017-09-13T03:05:11.939Z,9.90
2017-09-13T03:07:40.007Z,9.90
2017-09-13T03:10:08.092Z,10.00
2017-09-13T03:12:36.163Z,9.90
2017-09-13T03:15:04.268Z,9.90
2017-09-13T03:17:33.115Z,9.80
2017-09-13T03:20:01.199Z,9.80
2017-09-13T03:22:29.267Z,9.70
2017-09-13T03:24:57.353Z,9.80
2017-09-13T03:27:25.427Z,9.80
2017-09-13T03:29:53.502Z,9.70
2017-09-13T03:32:22.349Z,9.80
2017-09-13T03:34:50.432Z,9.80
2017-09-13T03:37:18.499Z,9.70
2017-09-13T03:39:46.788Z,9.80
2017-09-13T03:42:14.880Z,9.80
2017-09-13T03:44:43.745Z,9.80
2017-09-13T03:47:11.812Z,9.80
2017-09-13T03:49:39.895Z,9.80
2017-09-13T03:52:07.983Z,9.80
2017-09-13T03:54:36.847Z,9.90
2017-09-13T03:57:04.923Z,9.90
2017-09-13T03:59:32.999Z,10.00
2017-09-13T04:02:01.099Z,10.00
2017-09-13T04:04:29.172Z,10.10
2017-09-13T04:06:57.259Z,10.00
2017-09-13T04:09:25.410Z,10.10
2017-09-13T04:11:53.482Z,10.00
2017-09-13T04:14:21.560Z,10.10
2017-09-13T04:16:49.658Z,10.10
2017-09-13T04:19:17.743Z,10.20
2017-09-13T04:21:45.837Z,10.20
2017-09-13T04:24:14.692Z,10.20
2017-09-13T04:26:42.775Z,10.20
2017-09-13T04:29:10.850Z,10.20
2017-09-13T04:31:38.935Z,10.30
2017-09-13T04:34:07.784Z,10.30
2017-09-13T04:36:35.864Z,10.30
2017-09-13T04:39:03.940Z,10.30
2017-09-13T04:41:32.032Z,10.30
2017-09-13T04:44:00.118Z,10.40
2017-09-13T04:46:28.959Z,10.40
2017-09-13T04:48:57.044Z,10.40
2017-09-13T04:51:25.123Z,10.50
2017-09-13T04:53:53.206Z,10.50
2017-09-13T04:56:21.516Z,10.50
2017-09-13T04:58:49.594Z,10.60
2017-09-13T05:01:17.695Z,10.70
2017-09-13T05:03:45.783Z,10.70
2017-09-13T05:06:13.871Z,10.70
2017-09-13T05:08:42.731Z,10.80
2017-09-13T05:11:10.823Z,10.80
2017-09-13T05:13:39.712Z,10.90
2017-09-13T05:16:08.565Z,10.90
2017-09-13T05:18:36.663Z,10.90
2017-09-13T05:21:04.986Z,11.00
2017-09-13T05:23:33.075Z,11.00
2017-09-13T05:26:01.155Z,11.10
2017-09-13T05:28:29.265Z,11.10
2017-09-13T05:30:58.096Z,11.10
2017-09-13T05:33:26.171Z,11.00
2017-09-13T05:35:54.267Z,11.10
2017-09-13T05:38:22.348Z,11.10
2017-09-13T05:40:50.418Z,11.20
2017-09-13T05:43:18.503Z,11.20
2017-09-13T05:45:47.354Z,11.30
2017-09-13T05:48:15.450Z,11.30
2017-09-13T05:50:43.535Z,11.30
2017-09-13T05:53:12.543Z,11.40
2017-09-13T05:55:41.391Z,11.40
2017-09-13T05:58:09.471Z,11.40
2017-09-13T06:00:37.557Z,11.50
2017-09-13T06:03:06.399Z,11.60
2017-09-13T06:05:34.484Z,11.50
2017-09-13T06:08:02.574Z,11.60
2017-09-13T06:10:30.664Z,11.60
2017-09-13T06:12:59.499Z,11.70
2017-09-13T06:15:27.587Z,11.70
2017-09-13T06:17:55.663Z,11.80
2017-09-13T06:20:23.755Z,11.80
2017-09-13T06:22:52.606Z,11.80
2017-09-13T06:25:20.687Z,11.80
2017-09-13T06:27:48.837Z,11.80
2017-09-13T06:30:16.922Z,11.90
2017-09-13T06:32:45.008Z,11.90
2017-09-13T06:35:13.096Z,11.80
2017-09-13T06:37:41.179Z,11.90
2017-09-13T06:40:10.015Z,12.00
2017-09-13T06:42:38.100Z,11.90
2017-09-13T06:45:06.180Z,12.00
2017-09-13T06:47:34.271Z,12.00
2017-09-13T06:50:03.187Z,12.00
2017-09-13T06:52:31.276Z,12.00
2017-09-13T06:54:59.349Z,12.10
2017-09-13T06:57:27.429Z,12.20
2017-09-13T06:59:55.499Z,12.30
2017-09-13T07:02:23.627Z,12.30
2017-09-13T07:04:52.463Z,12.30
2017-09-13T07:07:20.530Z,12.30
2017-09-13T07:09:48.607Z,12.30
2017-09-13T07:12:16.697Z,12.40
2017-09-13T07:14:44.766Z,12.40
2017-09-13T07:17:12.839Z,12.40
2017-09-13T07:19:40.918Z,12.50
2017-09-13T07:22:09.758Z,12.50
2017-09-13T07:24:37.834Z,12.50
2017-09-13T07:27:05.911Z,12.50
2017-09-13T07:29:34.815Z,12.40
2017-09-13T07:32:02.889Z,12.40
2017-09-13T07:34:30.971Z,12.40
2017-09-13T07:36:59.046Z,12.40
2017-09-13T07:39:27.886Z,12.40
2017-09-13T07:41:55.972Z,12.40
2017-09-13T07:44:24.053Z,12.50
2017-09-13T07:46:52.133Z,12.50
2017-09-13T07:49:20.195Z,12.40
2017-09-13T07:51:48.274Z,12.40
2017-09-13T07:54:16.353Z,12.40
2017-09-13T07:56:44.423Z,12.40
2017-09-13T07:59:13.296Z,12.40
2017-09-13T08:01:41.379Z,12.40
2017-09-13T08:04:09.476Z,12.50
2017-09-13T08:06:37.552Z,12.50
2017-09-13T08:09:05.728Z,12.60
2017-09-13T08:11:33.811Z,12.60
2017-09-13T08:14:01.890Z,12.80
2017-09-13T08:16:29.975Z,12.90
2017-09-13T08:18:58.055Z,13.00
2017-09-13T08:21:26.140Z,13.00
2017-09-13T08:23:54.227Z,13.10
2017-09-13T08:26:23.068Z,13.20
2017-09-13T08:28:51.162Z,13.20
2017-09-13T08:31:19.239Z,13.30
2017-09-13T08:33:47.327Z,13.30
2017-09-13T08:36:16.175Z,13.50
2017-09-13T08:38:44.258Z,13.40
2017-09-13T08:41:12.330Z,13.40
2017-09-13T08:43:40.439Z,13.50
2017-09-13T08:46:08.520Z,13.50
2017-09-13T08:48:36.586Z,13.60
2017-09-13T08:51:04.667Z,13.70
2017-09-13T08:53:32.736Z,13.90
2017-09-13T08:56:00.817Z,14.10
2017-09-13T08:58:29.102Z,14.00
2017-09-13T09:00:57.255Z,14.20
2017-09-13T09:03:25.329Z,14.20
2017-09-13T09:05:53.418Z,14.20
2017-09-13T09:08:21.733Z,14.30
2017-09-13T09:10:49.836Z,14.50
2017-09-13T09:13:17.910Z,14.50
2017-09-13T09:15:46.003Z,14.70
2017-09-13T09:18:14.082Z,14.80
2017-09-13T09:20:42.148Z,15.00
2017-09-13T09:23:10.237Z,15.20
2017-09-13T09:25:38.336Z,15.50
2017-09-13T09:28:06.555Z,15.60
2017-09-13T09:30:34.848Z,15.70
2017-09-13T09:33:02.929Z,15.60
2017-09-13T09:35:31.006Z,15.50
2017-09-13T09:37:59.286Z,15.90
2017-09-13T09:40:27.597Z,16.10
2017-09-13T09:42:56.505Z,15.80
2017-09-13T09:45:25.347Z,15.90
2017-09-13T09:47:53.697Z,15.90
2017-09-13T09:50:21.894Z,16.10
2017-09-13T09:52:49.971Z,16.20
2017-09-13T09:55:18.408Z,16.10
2017-09-13T09:57:46.667Z,16.30
2017-09-13T10:00:14.979Z,16.70
2017-09-13T10:02:43.060Z,16.90
2017-09-13T10:05:11.974Z,17.30
2017-09-13T10:07:40.924Z,17.30
2017-09-13T10:10:09.014Z,17.30
2017-09-13T10:12:37.103Z,17.50
2017-09-13T10:15:05.188Z,17.30
2017-09-13T10:20:08.779Z,17.50
2017-09-13T10:22:36.851Z,17.50
2017-09-13T10:25:04.924Z,17.60
2017-09-13T10:27:33.007Z,17.90
2017-09-13T10:30:01.851Z,17.70
2017-09-13T10:32:29.925Z,17.60
2017-09-13T10:34:57.994Z,17.60
2017-09-13T10:37:26.075Z,17.90
2017-09-13T10:39:54.155Z,18.10
2017-09-13T10:42:22.243Z,18.00
2017-09-13T10:44:50.329Z,17.80
2017-09-13T10:47:19.179Z,17.80
2017-09-13T10:49:47.255Z,17.70
2017-09-13T10:52:15.347Z,17.60
2017-09-13T10:54:44.191Z,17.60
2017-09-13T10:57:12.297Z,17.60
2017-09-13T10:59:40.552Z,18.00
2017-09-13T11:02:08.857Z,18.00
2017-09-13T11:04:37.703Z,18.20
2017-09-13T11:07:05.775Z,18.20
2017-09-13T11:09:33.870Z,17.80
2017-09-13T11:12:01.936Z,17.70
2017-09-13T11:14:30.020Z,17.70
2017-09-13T11:16:58.096Z,17.80
2017-09-13T11:19:26.947Z,17.50
2017-09-13T11:21:55.027Z,17.50
2017-09-13T11:24:23.107Z,17.50
2017-09-13T11:26:51.178Z,17.40
2017-09-13T11:29:19.268Z,17.40
2017-09-13T11:31:48.115Z,17.30
2017-09-13T11:34:16.187Z,17.20
2017-09-13T11:36:44.266Z,17.20
2017-09-13T11:39:12.355Z,17.10
2017-09-13T11:41:40.440Z,17.10
2017-09-13T11:44:09.276Z,17.30
2017-09-13T11:46:37.367Z,17.30
2017-09-13T11:49:05.456Z,17.40
2017-09-13T11:51:33.539Z,17.40
2017-09-13T11:54:02.375Z,17.70
2017-09-13T11:56:30.464Z,17.70
2017-09-13T11:58:58.539Z,17.90
2017-09-13T12:01:26.620Z,17.90
2017-09-13T12:03:54.703Z,18.10
2017-09-13T12:06:23.546Z,18.10
2017-09-13T12:08:51.619Z,18.10
2017-09-13T12:11:19.696Z,18.20
2017-09-13T12:13:47.799Z,18.30
2017-09-13T12:16:16.643Z,18.30
2017-09-13T12:18:44.728Z,18.30
2017-09-13T12:21:12.792Z,18.30
2017-09-13T12:23:40.871Z,18.50
2017-09-13T12:26:08.940Z,18.60
2017-09-13T12:28:37.036Z,19.00
2017-09-13T12:31:05.884Z,19.60
2017-09-13T12:33:33.957Z,19.60
2017-09-13T12:36:02.033Z,19.30
2017-09-13T12:38:30.107Z,19.40
2017-09-13T12:40:58.391Z,19.30
2017-09-13T12:43:26.454Z,19.20
2017-09-13T12:45:54.531Z,19.40
2017-09-13T12:48:22.634Z,19.70
2017-09-13T12:50:50.735Z,19.60
2017-09-13T12:53:18.811Z,19.60
2017-09-13T12:55:46.905Z,19.50
2017-09-13T12:58:14.986Z,19.70
2017-09-13T13:00:43.063Z,19.70
2017-09-13T13:03:11.145Z,19.90
2017-09-13T13:05:39.208Z,20.20
2017-09-13T13:08:07.278Z,20.40
2017-09-13T13:10:35.506Z,20.50
2017-09-13T13:13:03.592Z,20.20
2017-09-13T13:15:31.663Z,20.00
2017-09-13T13:17:59.886Z,19.90
2017-09-13T13:20:27.987Z,19.80
2017-09-13T13:22:56.839Z,19.60
2017-09-13T13:25:24.932Z,19.60
2017-09-13T13:27:53.843Z,19.50
2017-09-13T13:30:21.923Z,19.50
2017-09-13T13:32:50.029Z,19.60
2017-09-13T13:35:18.107Z,19.40
2017-09-13T13:37:46.205Z,19.30
2017-09-13T13:40:15.042Z,19.00
2017-09-13T13:42:43.123Z,19.00
2017-09-13T13:45:11.212Z,19.00
2017-09-13T13:47:39.367Z,18.90
2017-09-13T13:50:07.513Z,18.80
2017-09-13T13:52:35.599Z,18.80
2017-09-13T13:55:03.699Z,18.80
2017-09-13T13:57:31.790Z,18.70
2017-09-13T14:00:00.659Z,18.70
2017-09-13T14:02:28.729Z,18.70
2017-09-13T14:04:56.931Z,18.70
2017-09-13T14:07:25.801Z,18.60
2017-09-13T14:09:53.927Z,18.60
2017-09-13T14:12:21.997Z,18.60
2017-09-13T14:14:50.095Z,18.50
2017-09-13T14:17:18.174Z,18.30
2017-09-13T14:19:46.283Z,18.30
2017-09-13T14:22:14.382Z,18.30
2017-09-13T14:24:42.491Z,18.30
2017-09-13T14:27:10.571Z,18.40
2017-09-13T14:29:38.649Z,18.40
2017-09-13T14:32:06.792Z,18.30
2017-09-13T14:34:34.863Z,18.30
2017-09-13T14:37:02.959Z,18.30
2017-09-13T14:39:31.027Z,18.20
2017-09-13T14:41:59.112Z,18.10
2017-09-13T14:44:27.948Z,18.00
2017-09-13T14:46:56.028Z,18.00
2017-09-13T14:49:24.090Z,18.00
2017-09-13T14:51:52.187Z,17.90
2017-09-13T14:54:20.262Z,17.90
2017-09-13T14:56:48.326Z,17.90
2017-09-13T14:59:16.403Z,17.80
2017-09-13T15:01:44.478Z,17.80
2017-09-13T15:04:12.555Z,17.80
2017-09-13T15:06:41.383Z,17.90
2017-09-13T15:09:09.463Z,17.90
2017-09-13T15:11:37.527Z,17.90
2017-09-13T15:14:05.604Z,17.90
2017-09-13T15:16:39.227Z,17.90
2017-09-13T15:19:07.321Z,17.90
2017-09-13T15:21:36.196Z,17.90
2017-09-13T15:24:04.278Z,17.90
2017-09-13T15:26:33.120Z,17.90
2017-09-13T15:29:01.323Z,17.90
2017-09-13T15:31:29.412Z,18.00
2017-09-13T15:33:57.478Z,17.90
2017-09-13T15:36:26.324Z,17.90
2017-09-13T15:38:54.409Z,17.90
2017-09-13T15:41:22.484Z,17.80
2017-09-13T15:43:50.566Z,17.80
2017-09-13T15:46:18.651Z,17.80
2017-09-13T15:48:47.493Z,17.50
2017-09-13T15:51:15.569Z,17.50
2017-09-13T15:53:43.639Z,17.20
2017-09-13T15:56:11.794Z,17.00
2017-09-13T15:58:39.864Z,16.50
2017-09-13T16:01:07.947Z,16.20
2017-09-13T16:03:36.025Z,16.00
2017-09-13T16:06:04.106Z,15.80
2017-09-13T16:08:32.182Z,15.60
2017-09-13T16:11:00.257Z,15.60
2017-09-13T16:13:28.332Z,15.50
2017-09-13T16:15:56.407Z,15.50
2017-09-13T16:18:25.263Z,15.20
2017-09-13T16:20:53.335Z,15.20
2017-09-13T16:23:21.524Z,15.40
2017-09-13T16:25:49.676Z,15.10
2017-09-13T16:28:17.761Z,15.10
2017-09-13T16:30:45.893Z,15.00
2017-09-13T16:33:13.992Z,15.00
2017-09-13T16:35:42.087Z,15.00
2017-09-13T16:38:10.175Z,15.30
2017-09-13T16:40:39.035Z,15.40
2017-09-13T16:43:07.115Z,15.40
2017-09-13T16:45:35.190Z,15.20
2017-09-13T16:48:03.312Z,15.20
2017-09-13T16:50:31.805Z,15.10
2017-09-13T16:52:59.968Z,15.00
2017-09-13T16:55:28.183Z,14.60
2017-09-13T16:57:56.421Z,14.80
2017-09-13T17:00:24.477Z,14.80
2017-09-13T17:02:52.594Z,14.60
2017-09-13T17:05:20.894Z,14.90
2017-09-13T17:07:49.748Z,15.00
2017-09-13T17:10:18.617Z,14.90
2017-09-13T17:12:46.992Z,14.80
2017-09-13T17:15:15.168Z,14.80
2017-09-13T17:17:43.264Z,14.80
2017-09-13T17:20:12.108Z,14.70
2017-09-13T17:22:40.396Z,14.60
2017-09-13T17:25:08.519Z,14.70
2017-09-13T17:27:37.375Z,14.50
2017-09-13T17:30:05.451Z,14.50
2017-09-13T17:32:33.551Z,14.20
2017-09-13T17:35:02.402Z,14.40
2017-09-13T17:37:30.476Z,14.40
2017-09-13T17:39:58.555Z,14.50
2017-09-13T17:42:26.636Z,14.50
2017-09-13T17:44:54.723Z,14.30
2017-09-13T17:47:23.591Z,14.30
2017-09-13T17:49:51.674Z,14.20
2017-09-13T17:52:20.529Z,14.00
2017-09-13T17:54:48.622Z,14.00
2017-09-13T17:57:16.699Z,14.10
2017-09-13T17:59:44.866Z,14.10
2017-09-13T18:02:14.586Z,14.00
2017-09-13T18:04:42.692Z,14.00
2017-09-13T18:07:10.759Z,14.00
2017-09-13T18:09:38.856Z,14.00
2017-09-13T18:12:06.928Z,14.10
2017-09-13T18:14:35.023Z,14.00
2017-09-13T18:17:03.109Z,13.90
2017-09-13T18:19:32.027Z,13.90
2017-09-13T18:22:00.180Z,13.90
2017-09-13T18:24:28.285Z,14.00
2017-09-13T18:26:57.361Z,13.80
2017-09-13T18:29:25.683Z,13.70
2017-09-13T18:31:53.868Z,13.60
2017-09-13T18:34:22.148Z,13.60
2017-09-13T18:36:50.418Z,13.50
2017-09-13T18:39:18.539Z,13.40
2017-09-13T18:41:46.833Z,13.30
2017-09-13T18:44:15.307Z,13.30
2017-09-13T18:46:43.686Z,13.30
2017-09-13T18:49:11.941Z,13.20
2017-09-13T18:51:40.167Z,13.30
2017-09-13T18:54:09.022Z,13.10
2017-09-13T18:56:37.345Z,13.10
2017-09-13T18:59:06.215Z,13.20
2017-09-13T19:01:34.370Z,13.20
2017-09-13T19:04:02.846Z,13.20
2017-09-13T19:06:30.944Z,13.20
2017-09-13T19:08:59.023Z,13.30
2017-09-13T19:11:27.867Z,13.30
2017-09-13T19:13:55.953Z,13.30
2017-09-13T19:16:24.045Z,13.30
2017-09-13T19:18:52.126Z,13.30
2017-09-13T19:21:20.996Z,13.30
2017-09-13T19:23:49.075Z,13.20
2017-09-13T19:26:17.157Z,13.20
2017-09-13T19:28:46.023Z,13.10
2017-09-13T19:31:14.096Z,13.00
2017-09-13T19:33:42.182Z,13.10
2017-09-13T19:36:10.473Z,13.10
2017-09-13T19:38:38.584Z,13.00
2017-09-13T19:41:06.669Z,12.90
2017-09-13T19:43:34.736Z,12.90
2017-09-13T19:46:02.820Z,13.00
2017-09-13T19:48:30.891Z,13.00
2017-09-13T19:50:58.986Z,13.00
2017-09-13T19:53:27.837Z,13.10
2017-09-13T19:55:55.917Z,13.00
2017-09-13T19:58:23.997Z,13.10
2017-09-13T20:00:52.120Z,13.10
2017-09-13T20:03:20.200Z,13.10
2017-09-13T20:05:48.295Z,13.10
2017-09-13T20:08:16.379Z,13.10
2017-09-13T20:10:44.463Z,13.10
2017-09-13T20:13:12.550Z,13.10
2017-09-13T20:15:40.681Z,13.10
2017-09-13T20:18:08.863Z,13.10
2017-09-13T20:20:36.952Z,13.10
2017-09-13T20:23:05.059Z,13.00
2017-09-13T20:25:33.263Z,13.10
2017-09-13T20:28:01.340Z,13.10
2017-09-13T20:30:29.428Z,13.00
2017-09-13T20:32:57.615Z,13.10
2017-09-13T20:35:25.795Z,13.00
2017-09-13T20:37:54.023Z,12.90
2017-09-13T20:40:22.128Z,12.90
2017-09-13T20:42:50.378Z,12.80
2017-09-13T20:45:18.543Z,12.80
2017-09-13T20:47:46.642Z,12.70
2017-09-13T20:50:15.519Z,12.80
2017-09-13T20:52:43.599Z,12.80
2017-09-13T20:55:12.461Z,12.60
2017-09-13T20:57:40.540Z,12.60
2017-09-13T21:00:08.621Z,12.70
2017-09-13T21:02:37.468Z,12.60
2017-09-13T21:05:05.551Z,12.60
2017-09-13T21:07:33.632Z,12.60
2017-09-13T21:10:02.048Z,12.60
2017-09-13T21:12:30.884Z,12.50
2017-09-13T21:14:58.979Z,12.50
2017-09-13T21:17:27.070Z,12.60
2017-09-13T21:19:55.922Z,12.50
2017-09-13T21:22:24.010Z,12.50
2017-09-13T21:24:52.095Z,12.60
2017-09-13T21:27:20.944Z,12.50
2017-09-13T21:29:49.032Z,12.50
2017-09-13T21:32:18.743Z,12.50
2017-09-13T21:34:47.018Z,12.50
2017-09-13T21:37:15.100Z,12.50
2017-09-13T21:39:43.185Z,12.60
2017-09-13T21:42:11.265Z,12.70
2017-09-13T21:44:39.367Z,12.60
2017-09-13T21:47:07.447Z,12.80
2017-09-13T21:49:35.588Z,13.00
2017-09-13T21:52:03.678Z,12.90
2017-09-13T21:54:31.772Z,13.00
2017-09-13T21:56:59.919Z,13.00
2017-09-13T21:59:28.128Z,13.00
2017-09-13T22:01:56.209Z,12.70
2017-09-13T22:04:24.291Z,12.60
2017-09-13T22:06:52.376Z,12.70
2017-09-13T22:09:20.455Z,12.40
2017-09-13T22:11:48.551Z,12.60
2017-09-13T22:14:16.627Z,12.80
2017-09-13T22:16:44.719Z,12.70
2017-09-13T22:19:12.844Z,12.50
2017-09-13T22:21:41.043Z,12.80
2017-09-13T22:24:09.115Z,12.80
2017-09-13T22:26:37.207Z,12.40
2017-09-13T22:29:05.286Z,12.50
2017-09-13T22:31:34.140Z,12.50
2017-09-13T22:34:02.227Z,12.50
2017-09-13T22:36:30.316Z,12.40
2017-09-13T22:38:59.169Z,12.80
2017-09-13T22:41:27.273Z,12.80
2017-09-13T22:43:55.337Z,12.40
2017-09-13T22:46:23.415Z,12.50
2017-09-13T22:48:52.666Z,12.40
2017-09-13T22:51:20.758Z,12.40
2017-09-13T22:53:48.827Z,12.40
2017-09-13T22:56:16.921Z,12.50
2017-09-13T22:58:45.000Z,12.70
2017-09-13T23:01:13.848Z,12.70
2017-09-13T23:03:41.928Z,12.60
2017-09-13T23:06:10.013Z,12.70
2017-09-13T23:08:38.089Z,12.80
2017-09-13T23:11:07.269Z,13.10
2017-09-13T23:13:35.355Z,13.10
2017-09-13T23:16:03.443Z,13.10
2017-09-13T23:18:31.687Z,13.20
2017-09-13T23:20:59.777Z,13.30
2017-09-13T23:23:27.859Z,13.20
2017-09-13T23:25:55.953Z,13.20
2017-09-13T23:28:24.045Z,13.30
2017-09-13T23:30:52.130Z,13.20
2017-09-13T23:33:20.207Z,13.20
2017-09-13T23:35:49.066Z,12.90
2017-09-13T23:38:17.240Z,12.80
2017-09-13T23:40:45.360Z,12.90
2017-09-13T23:43:13.443Z,13.00
2017-09-13T23:45:41.576Z,13.00
2017-09-13T23:48:09.660Z,12.90
2017-09-13T23:50:37.755Z,13.00
2017-09-13T23:53:05.848Z,12.90
2017-09-13T23:55:33.930Z,13.00
2017-09-13T23:58:02.115Z,12.90
